createdAt,value
2018-11-29T03:52:53.731Z,9.37
2018-11-29T03:55:27.611Z,9.70
2018-11-29T03:58:01.707Z,12.50
2018-11-29T04:00:35.567Z,11.27
2018-11-29T04:03:09.610Z,10.93
2018-11-29T04:05:43.607Z,10.57
2018-11-29T04:08:17.729Z,11.73
2018-11-29T04:10:51.766Z,11.67
2018-11-29T04:13:25.887Z,11.47
2018-11-29T04:15:59.849Z,11.33
2018-11-29T04:18:33.900Z,10.47
2018-11-29T04:21:08.620Z,10.73
2018-11-29T04:23:42.524Z,10.03
2018-11-29T04:26:16.492Z,10.73
2018-11-29T04:28:50.564Z,10.70
2018-11-29T04:31:24.640Z,10.13
2018-11-29T04:33:58.600Z,10.20
2018-11-29T04:36:32.657Z,11.57
2018-11-29T04:39:06.901Z,9.83
2018-11-29T04:41:40.952Z,10.47
2018-11-29T04:44:14.943Z,10.33
2018-11-29T04:46:48.964Z,9.93
2018-11-29T04:49:23.912Z,9.47
2018-11-29T04:51:57.935Z,9.67
2018-11-29T04:54:31.914Z,10.27
2018-11-29T04:57:05.979Z,10.00
2018-11-29T04:59:40.048Z,9.80
2018-11-29T05:02:14.112Z,9.60
2018-11-29T05:04:48.948Z,8.60
2018-11-29T05:07:22.871Z,8.67
2018-11-29T05:09:56.882Z,8.87
2018-11-29T05:12:30.889Z,9.33
2018-11-29T05:15:05.750Z,8.53
2018-11-29T05:17:39.686Z,8.73
2018-11-29T05:20:13.733Z,8.90
2018-11-29T05:22:48.622Z,9.53
2018-11-29T05:25:22.549Z,9.37
2018-11-29T05:27:57.401Z,9.87
2018-11-29T05:30:32.151Z,9.70
2018-11-29T05:33:06.090Z,10.33
2018-11-29T05:35:40.082Z,10.53
2018-11-29T05:38:14.152Z,9.63
2018-11-29T05:40:48.197Z,9.77
2018-11-29T05:43:22.294Z,9.57
2018-11-29T05:45:56.377Z,9.37
2018-11-29T05:48:30.399Z,9.67
2018-11-29T05:51:04.514Z,8.50
2018-11-29T05:53:38.591Z,8.47
2018-11-29T05:56:12.839Z,9.40
2018-11-29T05:58:46.929Z,9.00
2018-11-29T06:01:21.608Z,9.10
2018-11-29T06:03:55.508Z,8.87
2018-11-29T06:06:30.367Z,9.80
2018-11-29T06:09:04.441Z,10.93
2018-11-29T06:11:38.419Z,11.17
2018-11-29T06:14:12.502Z,11.17
2018-11-29T06:16:46.518Z,10.80
2018-11-29T06:19:20.500Z,11.07
2018-11-29T06:21:54.583Z,11.83
2018-11-29T06:24:28.746Z,11.47
2018-11-29T06:27:02.876Z,11.37
2018-11-29T06:29:36.893Z,11.37
2018-11-29T06:32:11.016Z,11.30
2018-11-29T06:34:45.055Z,10.87
2018-11-29T06:37:19.084Z,10.33
2018-11-29T06:39:53.165Z,10.90
2018-11-29T06:42:27.276Z,10.80
2018-11-29T06:45:01.255Z,11.07
2018-11-29T06:47:35.403Z,10.57
2018-11-29T06:50:09.503Z,10.93
2018-11-29T06:52:43.682Z,11.30
2018-11-29T06:55:17.736Z,11.13
2018-11-29T06:57:52.664Z,11.33
2018-11-29T07:00:26.779Z,13.23
2018-11-29T07:03:04.139Z,11.83
2018-11-29T07:05:38.140Z,11.67
2018-11-29T07:08:12.315Z,11.67
2018-11-29T07:10:46.273Z,11.40
2018-11-29T07:13:21.496Z,12.40
2018-11-29T07:15:56.383Z,11.43
2018-11-29T07:18:30.511Z,11.13
2018-11-29T07:24:13.617Z,16.33
2018-11-29T07:26:47.672Z,12.40
2018-11-29T07:29:21.716Z,12.63
2018-11-29T07:31:55.603Z,10.97
2018-11-29T07:34:30.456Z,11.07
2018-11-29T07:37:04.374Z,10.70
2018-11-29T07:39:38.383Z,11.63
2018-11-29T07:42:12.378Z,12.77
2018-11-29T07:44:47.220Z,10.63
2018-11-29T07:47:21.157Z,11.40
2018-11-29T07:49:55.181Z,12.13
2018-11-29T07:52:29.143Z,11.13
2018-11-29T07:55:03.244Z,12.07
2018-11-29T07:57:37.252Z,12.87
2018-11-29T08:00:11.551Z,12.00
2018-11-29T08:02:45.675Z,10.87
2018-11-29T08:05:19.713Z,11.80
2018-11-29T08:10:40.388Z,10.20
2018-11-29T08:13:17.745Z,10.50
2018-11-29T08:16:01.372Z,10.47
2018-11-29T08:18:35.405Z,11.23
2018-11-29T08:21:13.164Z,12.03
2018-11-29T08:23:56.858Z,10.80
2018-11-29T08:26:31.803Z,11.10
2018-11-29T08:29:05.838Z,11.60
2018-11-29T08:31:40.035Z,12.10
2018-11-29T08:34:14.010Z,12.10
2018-11-29T08:36:47.957Z,11.63
2018-11-29T08:39:23.067Z,12.17
2018-11-29T08:41:57.236Z,10.40
2018-11-29T08:44:31.405Z,12.07
2018-11-29T08:47:06.300Z,11.50
2018-11-29T08:49:40.320Z,11.47
2018-11-29T08:52:15.183Z,12.07
2018-11-29T08:54:49.212Z,11.90
2018-11-29T08:57:23.176Z,10.87
2018-11-29T08:59:57.287Z,11.90
2018-11-29T09:02:31.398Z,10.13
2018-11-29T09:05:05.620Z,12.23
2018-11-29T09:07:39.612Z,11.87
2018-11-29T09:10:13.789Z,11.40
2018-11-29T09:12:47.847Z,11.90
2018-11-29T09:15:22.001Z,11.77
2018-11-29T09:17:56.748Z,11.07
2018-11-29T09:20:30.851Z,12.63
2018-11-29T09:23:05.175Z,10.73
2018-11-29T09:25:40.111Z,11.10
2018-11-29T09:28:14.229Z,12.10
2018-11-29T09:30:48.280Z,11.90
2018-11-29T09:33:26.473Z,11.90
2018-11-29T09:36:00.649Z,11.13
2018-11-29T09:38:34.736Z,12.03
2018-11-29T09:41:08.873Z,12.07
2018-11-29T09:43:42.939Z,12.57
2018-11-29T09:46:17.003Z,12.17
2018-11-29T09:48:50.968Z,13.23
2018-11-29T09:51:25.040Z,11.53
2018-11-29T09:53:59.115Z,13.07
2018-11-29T09:56:33.251Z,10.83
2018-11-29T09:59:07.242Z,13.00
2018-11-29T10:01:42.001Z,11.53
2018-11-29T10:04:16.191Z,12.07
2018-11-29T10:06:50.312Z,11.80
2018-11-29T10:09:24.391Z,12.50
2018-11-29T10:11:58.395Z,11.23
2018-11-29T10:14:32.307Z,13.10
2018-11-29T10:17:06.408Z,13.17
2018-11-29T10:19:41.422Z,11.80
2018-11-29T10:22:15.444Z,12.67
2018-11-29T10:24:49.382Z,13.10
2018-11-29T10:27:23.453Z,13.03
2018-11-29T10:29:57.557Z,12.67
2018-11-29T10:32:31.664Z,12.80
2018-11-29T10:35:06.385Z,12.17
2018-11-29T10:37:40.462Z,12.10
2018-11-29T10:40:14.561Z,12.53
2018-11-29T10:42:48.738Z,12.17
2018-11-29T10:45:22.724Z,13.50
2018-11-29T10:47:56.763Z,12.63
2018-11-29T10:50:30.826Z,13.03
2018-11-29T10:53:05.037Z,12.53
2018-11-29T10:55:39.136Z,11.80
2018-11-29T10:58:13.353Z,13.10
2018-11-29T11:00:47.515Z,12.60
2018-11-29T11:03:22.212Z,13.23
2018-11-29T11:05:56.387Z,11.87
2018-11-29T11:08:30.416Z,12.63
2018-11-29T11:11:04.531Z,11.80
2018-11-29T11:13:39.427Z,12.00
2018-11-29T11:16:13.507Z,10.67
2018-11-29T11:18:47.624Z,12.67
2018-11-29T11:21:21.736Z,12.20
2018-11-29T11:23:59.338Z,11.60
2018-11-29T11:26:29.912Z,13.03
2018-11-29T11:29:04.096Z,11.70
2018-11-29T11:31:38.888Z,12.90
2018-11-29T11:34:13.610Z,19.07
2018-11-29T11:36:47.760Z,13.37
2018-11-29T11:39:21.735Z,12.97
2018-11-29T11:41:55.806Z,13.00
2018-11-29T11:44:29.924Z,13.70
2018-11-29T11:47:04.341Z,14.77
2018-11-29T11:49:38.419Z,12.90
2018-11-29T11:52:13.175Z,12.57
2018-11-29T11:54:47.319Z,11.97
2018-11-29T11:57:21.490Z,12.60
2018-11-29T11:59:55.626Z,12.53
2018-11-29T12:02:30.523Z,12.10
2018-11-29T12:05:04.711Z,13.67
2018-11-29T12:07:38.740Z,12.67
2018-11-29T12:10:12.869Z,12.67
2018-11-29T12:12:47.065Z,12.67
2018-11-29T12:15:22.003Z,11.77
2018-11-29T12:17:56.864Z,13.20
2018-11-29T12:20:30.915Z,12.80
2018-11-29T12:23:05.130Z,12.63
2018-11-29T12:25:39.327Z,13.07
2018-11-29T12:28:13.342Z,12.17
2018-11-29T12:30:47.402Z,13.13
2018-11-29T12:33:21.476Z,13.17
2018-11-29T12:35:55.468Z,14.53
2018-11-29T12:38:31.780Z,13.60
2018-11-29T12:41:05.704Z,14.60
2018-11-29T12:43:39.852Z,13.47
2018-11-29T12:46:14.592Z,11.90
2018-11-29T12:48:49.181Z,12.83
2018-11-29T12:51:23.349Z,14.07
2018-11-29T12:53:57.452Z,11.73
2018-11-29T12:56:31.444Z,13.40
2018-11-29T12:59:06.700Z,12.80
2018-11-29T13:01:40.775Z,12.40
2018-11-29T13:04:14.917Z,13.10
2018-11-29T13:06:48.877Z,11.20
2018-11-29T13:09:22.990Z,12.77
2018-11-29T13:11:57.067Z,12.63
2018-11-29T13:14:31.109Z,11.80
2018-11-29T13:17:05.991Z,12.00
2018-11-29T13:19:40.100Z,13.00
2018-11-29T13:22:14.229Z,12.43
2018-11-29T13:24:48.333Z,12.40
2018-11-29T13:27:22.331Z,11.57
2018-11-29T13:29:57.285Z,12.37
2018-11-29T13:32:31.236Z,10.97
2018-11-29T13:35:05.353Z,11.53
2018-11-29T13:37:39.936Z,11.43
2018-11-29T13:40:14.188Z,10.93
2018-11-29T13:42:48.225Z,11.97
2018-11-29T13:45:24.409Z,12.03
2018-11-29T13:47:59.174Z,11.23
2018-11-29T13:50:33.975Z,12.10
2018-11-29T13:53:08.817Z,13.07
2018-11-29T13:55:42.879Z,14.60
2018-11-29T13:58:16.820Z,11.87
2018-11-29T14:00:51.215Z,13.53
2018-11-29T14:03:25.217Z,12.57
2018-11-29T14:05:59.164Z,12.10
2018-11-29T14:08:33.240Z,10.60
2018-11-29T14:11:07.336Z,11.87
2018-11-29T14:13:41.292Z,12.07
2018-11-29T14:16:15.291Z,12.13
2018-11-29T14:18:49.489Z,12.50
2018-11-29T14:21:23.715Z,12.20
2018-11-29T14:23:57.665Z,12.33
2018-11-29T14:26:31.641Z,12.07
2018-11-29T14:29:05.782Z,11.80
2018-11-29T14:31:40.520Z,11.63
2018-11-29T14:34:14.632Z,10.60
2018-11-29T14:36:48.688Z,11.03
2018-11-29T14:39:22.809Z,10.90
2018-11-29T14:41:56.964Z,11.10
2018-11-29T14:44:31.100Z,10.10
2018-11-29T14:47:05.271Z,10.00
2018-11-29T14:49:40.188Z,10.93
2018-11-29T14:52:14.335Z,9.33
2018-11-29T14:54:48.447Z,10.17
2018-11-29T14:57:22.500Z,10.80
2018-11-29T14:59:56.537Z,11.47
2018-11-29T15:02:30.450Z,9.73
2018-11-29T15:05:07.764Z,9.57
2018-11-29T15:07:38.615Z,9.40
2018-11-29T15:10:12.739Z,9.50
2018-11-29T15:12:46.713Z,8.97
2018-11-29T15:15:20.720Z,9.63
2018-11-29T15:17:54.748Z,9.43
2018-11-29T15:20:28.979Z,9.63
2018-11-29T15:23:02.997Z,10.00
2018-11-29T15:25:36.987Z,11.53
2018-11-29T15:28:10.938Z,10.90
2018-11-29T15:30:45.009Z,11.60
2018-11-29T15:33:19.152Z,11.47
2018-11-29T15:35:53.119Z,10.43
2018-11-29T15:38:27.519Z,10.97
2018-11-29T15:41:01.468Z,11.97
2018-11-29T15:43:35.451Z,11.80
2018-11-29T15:46:09.575Z,10.70
2018-11-29T15:48:43.697Z,11.40
2018-11-29T15:51:17.749Z,10.80
2018-11-29T15:53:52.619Z,10.63
2018-11-29T15:56:26.795Z,10.73
2018-11-29T15:59:01.155Z,10.23
2018-11-29T16:01:35.904Z,10.53
2018-11-29T16:04:10.056Z,11.70
2018-11-29T16:06:45.032Z,9.47
2018-11-29T16:09:19.187Z,10.37
2018-11-29T16:11:53.289Z,9.30
2018-11-29T16:14:27.412Z,9.43
2018-11-29T16:17:01.578Z,10.57
2018-11-29T16:19:35.631Z,10.13
2018-11-29T16:22:09.734Z,10.13
2018-11-29T16:24:43.749Z,9.80
2018-11-29T16:27:17.927Z,9.43
2018-11-29T16:29:52.040Z,10.43
2018-11-29T16:32:26.044Z,10.47
2018-11-29T16:35:00.188Z,12.43
2018-11-29T16:37:34.199Z,12.50
2018-11-29T16:40:08.377Z,11.87
2018-11-29T16:42:42.455Z,10.77
2018-11-29T16:45:16.586Z,10.37
2018-11-29T16:47:50.758Z,10.43
2018-11-29T16:50:24.896Z,9.10
2018-11-29T16:52:59.728Z,8.60
2018-11-29T16:55:33.661Z,8.57
2018-11-29T16:58:07.739Z,7.70
2018-11-29T17:00:41.860Z,8.13
2018-11-29T17:03:16.034Z,8.90
2018-11-29T17:05:49.992Z,8.53
2018-11-29T17:08:24.225Z,7.87
2018-11-29T17:10:58.936Z,8.17
2018-11-29T17:13:33.008Z,9.13
2018-11-29T17:16:07.071Z,9.20
2018-11-29T17:18:41.123Z,8.53
2018-11-29T17:21:15.186Z,8.50
2018-11-29T17:23:49.324Z,8.37
2018-11-29T17:26:23.482Z,7.63
2018-11-29T17:28:57.619Z,7.67
2018-11-29T17:31:33.412Z,8.40
2018-11-29T17:34:08.386Z,8.33
2018-11-29T17:36:42.324Z,8.97
2018-11-29T17:39:16.353Z,8.00
2018-11-29T17:41:50.463Z,8.90
2018-11-29T17:44:25.476Z,7.83
2018-11-29T17:46:59.485Z,7.77
2018-11-29T17:49:33.616Z,7.87
2018-11-29T17:52:07.684Z,7.43
2018-11-29T17:54:41.729Z,7.70
2018-11-29T17:57:15.819Z,7.43
2018-11-29T17:59:49.971Z,8.23
2018-11-29T18:02:26.802Z,8.63
2018-11-29T18:05:00.979Z,7.33
2018-11-29T18:07:35.076Z,9.13
2018-11-29T18:10:09.173Z,8.17
2018-11-29T18:12:43.896Z,8.70
2018-11-29T18:15:17.980Z,8.77
2018-11-29T18:17:52.140Z,8.93
2018-11-29T18:20:26.123Z,9.40
2018-11-29T18:23:00.123Z,9.17
2018-11-29T18:25:34.237Z,9.30
2018-11-29T18:28:09.135Z,9.30
2018-11-29T18:30:43.991Z,8.97
2018-11-29T18:33:18.141Z,11.77
2018-11-29T18:35:52.127Z,14.23
2018-11-29T18:38:26.276Z,13.07
2018-11-29T18:41:01.195Z,13.50
2018-11-29T18:43:35.279Z,12.93
2018-11-29T18:46:09.340Z,11.63
2018-11-29T18:48:43.472Z,11.23
2018-11-29T18:51:17.648Z,10.03
2018-11-29T18:53:52.355Z,10.77
2018-11-29T18:56:26.505Z,10.60
2018-11-29T18:59:00.554Z,10.73
2018-11-29T19:01:34.751Z,10.70
2018-11-29T19:04:09.522Z,9.93
2018-11-29T19:06:44.389Z,9.20
2018-11-29T19:09:18.459Z,9.83
2018-11-29T19:11:52.403Z,11.27
2018-11-29T19:14:26.517Z,9.17
2018-11-29T19:17:00.504Z,9.67
2018-11-29T19:19:34.620Z,9.03
2018-11-29T19:22:08.751Z,10.23
2018-11-29T19:24:42.942Z,10.07
2018-11-29T19:27:17.012Z,10.30
2018-11-29T19:29:51.799Z,10.40
2018-11-29T19:32:25.925Z,12.00
2018-11-29T19:35:00.038Z,13.47
2018-11-29T19:37:34.049Z,15.07
2018-11-29T19:40:08.145Z,14.80
2018-11-29T19:42:42.280Z,16.63
2018-11-29T19:45:16.400Z,16.33
2018-11-29T19:47:50.430Z,18.67
2018-11-29T19:50:24.629Z,18.33
2018-11-29T19:52:59.467Z,16.90
2018-11-29T19:55:33.411Z,16.87
2018-11-29T19:58:07.513Z,14.10
2018-11-29T20:00:41.688Z,13.37
2018-11-29T20:03:15.717Z,11.70
2018-11-29T20:05:49.840Z,10.83
2018-11-29T20:08:23.823Z,10.90
2018-11-29T20:10:57.989Z,10.00
2018-11-29T20:13:32.160Z,9.60
2018-11-29T20:16:06.273Z,10.63
2018-11-29T20:18:40.395Z,8.93
2018-11-29T20:21:14.376Z,10.50
2018-11-29T20:23:48.386Z,10.33
2018-11-29T20:26:23.320Z,10.07
2018-11-29T20:28:57.460Z,9.70
2018-11-29T20:31:31.921Z,10.27
2018-11-29T20:34:06.108Z,10.23
2018-11-29T20:36:40.262Z,9.77
2018-11-29T20:39:14.347Z,11.10
2018-11-29T20:41:48.416Z,11.67
2018-11-29T20:44:22.376Z,10.27
2018-11-29T20:46:56.724Z,11.40
2018-11-29T20:49:31.576Z,10.43
2018-11-29T20:52:05.723Z,11.10
2018-11-29T20:54:39.886Z,11.97
2018-11-29T20:57:13.961Z,11.83
2018-11-29T20:59:48.195Z,11.50
2018-11-29T21:02:22.323Z,10.63
2018-11-29T21:04:56.436Z,11.03
2018-11-29T21:07:30.608Z,10.87
2018-11-29T21:10:04.839Z,9.90
2018-11-29T21:12:38.971Z,11.27
2018-11-29T21:15:13.008Z,10.40
2018-11-29T21:17:47.100Z,10.73
2018-11-29T21:20:21.326Z,10.37
2018-11-29T21:22:55.611Z,10.97
2018-11-29T21:25:30.531Z,9.90
2018-11-29T21:28:05.536Z,10.70
2018-11-29T21:30:39.508Z,9.77
2018-11-29T21:33:14.549Z,11.27
2018-11-29T21:35:49.045Z,9.20
2018-11-29T21:38:24.137Z,9.83
2018-11-29T21:40:58.222Z,9.60
2018-11-29T21:43:33.193Z,9.10
2018-11-29T21:46:07.267Z,10.03
2018-11-29T21:48:41.353Z,10.03
2018-11-29T21:51:15.531Z,9.63
2018-11-29T21:53:49.689Z,9.57
2018-11-29T21:56:23.764Z,9.63
2018-11-29T21:58:57.903Z,9.53
2018-11-29T22:01:31.996Z,9.33
2018-11-29T22:04:06.004Z,11.13
2018-11-29T22:06:40.355Z,8.93
2018-11-29T22:09:14.414Z,9.30
2018-11-29T22:11:48.409Z,8.87
2018-11-29T22:14:23.102Z,8.50
2018-11-29T22:16:57.946Z,10.40
2018-11-29T22:19:32.121Z,9.87
2018-11-29T22:22:06.295Z,9.33
2018-11-29T22:24:40.351Z,8.33
2018-11-29T22:27:14.376Z,8.37
2018-11-29T22:29:48.459Z,7.90
2018-11-29T22:32:22.544Z,8.40
2018-11-29T22:34:56.556Z,9.50
2018-11-29T22:37:31.425Z,8.67
2018-11-29T22:40:05.594Z,8.60
2018-11-29T22:42:39.543Z,8.17
2018-11-29T22:45:13.711Z,8.83
2018-11-29T22:47:47.612Z,8.83
2018-11-29T22:50:21.568Z,9.20
2018-11-29T22:52:55.681Z,9.77
2018-11-29T22:55:29.804Z,9.47
2018-11-29T22:58:03.725Z,10.07
2018-11-29T23:00:37.935Z,10.07
2018-11-29T23:03:12.717Z,10.27
2018-11-29T23:05:46.753Z,10.37
2018-11-29T23:08:20.693Z,8.27
2018-11-29T23:10:54.668Z,9.93
2018-11-29T23:13:28.692Z,9.03
2018-11-29T23:16:02.620Z,9.07
2018-11-29T23:18:37.350Z,10.57
2018-11-29T23:21:11.477Z,9.47
2018-11-29T23:23:45.394Z,8.27
2018-11-29T23:26:19.489Z,9.37
2018-11-29T23:28:53.568Z,8.63
2018-11-29T23:31:27.670Z,7.70
2018-11-29T23:34:01.916Z,9.80
2018-11-29T23:36:35.932Z,8.27
2018-11-29T23:39:10.019Z,8.63
2018-11-29T23:41:44.148Z,8.40
2018-11-29T23:44:18.924Z,7.97
2018-11-29T23:46:53.080Z,8.43
2018-11-29T23:49:27.844Z,8.40
2018-11-29T23:52:02.684Z,8.40
2018-11-29T23:54:36.768Z,9.07
2018-11-29T23:57:10.691Z,8.73
2018-11-29T23:59:44.688Z,8.00
